Time;durP1;ratioP1;P1;durP2;ratioP2;P2;SDS_P1;SDS_P2;PMS_P1;PMS_P2;Temp;Humidity;BMP_temperature;BMP_pressure;BME280_temperature;BME280_humidity;BME280_pressure;Samples;Min_cycle;Max_cycle;Signal;HPM_P1;HPM_P2
2021/08/17 00:01:32;;;;;;;2.90;1.37;;;;;;;;;;5097549;28;20216;-65
2021/08/17 00:04:00;;;;;;;1.43;1.30;;;;;;;;;;5097599;28;20221;-65
2021/08/17 00:06:30;;;;;;;2.70;1.70;;;;;;;;;;5097851;28;20206;-65
2021/08/17 00:08:57;;;;;;;1.30;1.20;;;;;;;;;;5098004;28;20205;-65
2021/08/17 00:11:25;;;;;;;2.00;1.43;;;;;;;;;;5098027;28;20292;-65
2021/08/17 00:13:53;;;;;;;3.40;1.40;;;;;;;;;;5097435;28;20277;-65
2021/08/17 00:16:21;;;;;;;1.97;1.30;;;;;;;;;;5097625;28;20279;-65
2021/08/17 00:18:49;;;;;;;2.27;1.47;;;;;;;;;;5117920;28;20233;-65
2021/08/17 00:21:17;;;;;;;1.60;1.50;;;;;;;;;;5118071;28;20211;-65
2021/08/17 00:23:47;;;;;;;1.87;1.50;;;;;;;;;;5117720;28;20378;-65
2021/08/17 00:26:14;;;;;;;1.60;1.50;;;;;;;;;;5103513;28;20204;-65
2021/08/17 00:28:42;;;;;;;1.47;1.37;;;;;;;;;;5097762;28;20205;-65
2021/08/17 00:31:11;;;;;;;2.57;1.20;;;;;;;;;;5109091;28;20201;-65
2021/08/17 00:33:39;;;;;;;1.83;1.67;;;;;;;;;;5117726;28;20197;-65
2021/08/17 00:36:07;;;;;;;2.93;1.17;;;;;;;;;;5117729;28;20227;-65
2021/08/17 00:38:35;;;;;;;4.00;1.67;;;;;;;;;;5117637;28;20288;-63
2021/08/17 00:41:05;;;;;;;1.60;1.40;;;;;;;;;;5117583;28;20632;-63
2021/08/17 00:43:33;;;;;;;1.93;1.67;;;;;;;;;;5117723;28;20204;-65
2021/08/17 00:46:01;;;;;;;3.67;1.33;;;;;;;;;;5117420;28;20201;-65
2021/08/17 00:48:29;;;;;;;1.30;1.20;;;;;;;;;;5117427;28;20568;-65
2021/08/17 00:50:56;;;;;;;1.50;1.30;;;;;;;;;;5117909;28;20207;-65
2021/08/17 00:53:24;;;;;;;2.20;2.00;;;;;;;;;;5117718;28;20204;-65
2021/08/17 00:55:52;;;;;;;1.67;1.40;;;;;;;;;;5117261;28;20587;-65
2021/08/17 00:58:22;;;;;;;1.33;1.23;;;;;;;;;;5117769;28;20211;-65
2021/08/17 01:00:50;;;;;;;1.97;1.77;;;;;;;;;;5117330;28;20671;-65
2021/08/17 01:03:18;;;;;;;1.80;1.43;;;;;;;;;;5117448;28;20205;-65
2021/08/17 01:05:46;;;;;;;2.80;1.40;;;;;;;;;;5117447;28;20229;-65
2021/08/17 01:08:14;;;;;;;4.80;1.60;;;;;;;;;;5117392;28;20216;-65
2021/08/17 01:10:42;;;;;;;1.67;1.57;;;;;;;;;;5117335;28;20686;-65
2021/08/17 01:13:10;;;;;;;2.47;1.33;;;;;;;;;;5117833;28;20209;-65
2021/08/17 01:15:39;;;;;;;1.70;1.60;;;;;;;;;;5117141;28;20239;-65
2021/08/17 01:18:07;;;;;;;1.73;1.63;;;;;;;;;;5120854;28;20200;-65
2021/08/17 01:20:37;;;;;;;1.70;1.60;;;;;;;;;;5120953;27;20236;-65
2021/08/17 01:23:05;;;;;;;2.00;1.30;;;;;;;;;;5120953;28;20211;-65
2021/08/17 01:25:35;;;;;;;1.77;1.47;;;;;;;;;;5112262;28;20218;-65
2021/08/17 01:28:03;;;;;;;2.13;1.57;;;;;;;;;;5100808;28;20212;-65
2021/08/17 01:30:31;;;;;;;1.60;1.43;;;;;;;;;;5100599;28;20483;-65
2021/08/17 01:32:59;;;;;;;1.67;1.30;;;;;;;;;;5100711;28;20209;-65
2021/08/17 01:35:28;;;;;;;2.97;1.50;;;;;;;;;;5100573;28;20233;-65
2021/08/17 01:37:56;;;;;;;2.90;1.77;;;;;;;;;;5100366;28;20211;-65
2021/08/17 01:40:24;;;;;;;3.27;1.73;;;;;;;;;;5100361;28;20293;-65
2021/08/17 01:42:53;;;;;;;1.93;1.60;;;;;;;;;;5100178;28;20288;-65
2021/08/17 01:45:22;;;;;;;3.43;1.63;;;;;;;;;;5100317;28;20229;-65
2021/08/17 01:47:50;;;;;;;1.90;1.70;;;;;;;;;;5100285;28;20209;-65
2021/08/17 01:50:18;;;;;;;2.53;1.90;;;;;;;;;;5100403;28;20206;-65
2021/08/17 01:52:46;;;;;;;2.60;1.60;;;;;;;;;;5100306;28;20212;-65
2021/08/17 01:55:14;;;;;;;1.80;1.60;;;;;;;;;;5100072;28;20791;-65
2021/08/17 01:57:42;;;;;;;1.67;1.57;;;;;;;;;;5100058;28;20229;-65
2021/08/17 02:00:12;;;;;;;2.03;1.50;;;;;;;;;;5099927;28;20216;-65
2021/08/17 02:02:41;;;;;;;4.90;2.03;;;;;;;;;;5107142;28;20240;-65
2021/08/17 02:05:10;;;;;;;4.70;1.60;;;;;;;;;;5120321;27;20228;-65
2021/08/17 02:07:38;;;;;;;2.27;1.90;;;;;;;;;;5120634;28;20211;-65
2021/08/17 02:10:07;;;;;;;1.67;1.57;;;;;;;;;;5120483;27;20205;-65
2021/08/17 02:12:34;;;;;;;3.33;1.70;;;;;;;;;;5120560;28;20212;-65
2021/08/17 02:15:02;;;;;;;3.00;2.07;;;;;;;;;;5119757;28;20225;-65
2021/08/17 02:17:32;;;;;;;2.70;1.50;;;;;;;;;;5119870;28;20224;-65
2021/08/17 02:20:00;;;;;;;1.77;1.30;;;;;;;;;;5119918;28;20237;-65
2021/08/17 02:22:28;;;;;;;2.90;1.43;;;;;;;;;;5119900;27;20295;-65
2021/08/17 02:24:58;;;;;;;2.07;1.53;;;;;;;;;;5115788;28;20221;-65
2021/08/17 02:27:26;;;;;;;1.67;1.57;;;;;;;;;;5099649;28;20233;-65
2021/08/17 02:29:54;;;;;;;3.03;1.83;;;;;;;;;;5099345;28;20213;-65
2021/08/17 02:32:22;;;;;;;2.27;1.60;;;;;;;;;;5099219;28;20271;-65
2021/08/17 02:34:51;;;;;;;1.70;1.60;;;;;;;;;;5099366;28;20255;-64
2021/08/17 02:37:19;;;;;;;1.80;1.53;;;;;;;;;;5099202;28;20229;-64
2021/08/17 02:39:47;;;;;;;2.20;1.90;;;;;;;;;;5099361;28;20679;-65
2021/08/17 02:42:15;;;;;;;2.67;2.10;;;;;;;;;;5099330;28;20211;-65
2021/08/17 02:44:43;;;;;;;1.97;1.37;;;;;;;;;;5099143;28;20228;-65
2021/08/17 02:47:11;;;;;;;3.07;1.90;;;;;;;;;;5099027;28;20208;-64
2021/08/17 02:49:39;;;;;;;3.07;1.70;;;;;;;;;;5098941;28;20216;-64
2021/08/17 02:52:08;;;;;;;2.57;1.90;;;;;;;;;;5098853;28;20214;-65
2021/08/17 02:54:37;;;;;;;2.17;1.97;;;;;;;;;;5098835;28;20228;-64
2021/08/17 02:57:07;;;;;;;3.93;1.70;;;;;;;;;;5098716;28;20584;-64
2021/08/17 02:59:35;;;;;;;3.07;1.90;;;;;;;;;;5098905;28;20687;-65
2021/08/17 03:02:04;;;;;;;1.97;1.50;;;;;;;;;;5098563;28;20201;-65
2021/08/17 03:04:32;;;;;;;4.43;1.73;;;;;;;;;;5098932;28;20287;-65
2021/08/17 03:07:00;;;;;;;3.17;1.80;;;;;;;;;;5098936;28;20202;-65
2021/08/17 03:09:29;;;;;;;4.30;1.93;;;;;;;;;;5098676;28;20661;-65
2021/08/17 03:11:57;;;;;;;2.10;1.90;;;;;;;;;;5098805;28;20210;-63
2021/08/17 03:14:25;;;;;;;2.73;2.03;;;;;;;;;;5098459;28;20275;-63
2021/08/17 03:16:53;;;;;;;2.10;1.80;;;;;;;;;;5102259;28;20246;-63
2021/08/17 03:19:21;;;;;;;4.20;1.80;;;;;;;;;;5118853;28;20243;-62
2021/08/17 03:21:49;;;;;;;3.63;1.77;;;;;;;;;;5118767;28;20235;-63
2021/08/17 03:24:17;;;;;;;2.13;1.70;;;;;;;;;;5118796;28;20231;-63
2021/08/17 03:26:46;;;;;;;1.83;1.67;;;;;;;;;;5099555;28;20728;-63
2021/08/17 03:29:14;;;;;;;3.13;1.90;;;;;;;;;;5098366;28;20201;-63
2021/08/17 03:31:42;;;;;;;3.23;1.87;;;;;;;;;;5097898;28;20231;-63
2021/08/17 03:34:10;;;;;;;3.80;2.30;;;;;;;;;;5098314;28;20244;-63
2021/08/17 03:36:38;;;;;;;3.70;2.10;;;;;;;;;;5104856;28;20237;-63
2021/08/17 03:39:06;;;;;;;4.20;1.80;;;;;;;;;;5118201;28;20209;-63
2021/08/17 03:41:34;;;;;;;2.43;1.77;;;;;;;;;;5118754;28;20209;-63
2021/08/17 03:44:03;;;;;;;2.07;1.87;;;;;;;;;;5118654;28;20224;-63
2021/08/17 03:46:31;;;;;;;2.63;1.57;;;;;;;;;;5118043;28;20584;-63
2021/08/17 03:48:59;;;;;;;2.30;2.00;;;;;;;;;;5118381;28;20204;-63
2021/08/17 03:51:28;;;;;;;5.23;2.20;;;;;;;;;;5118451;28;20204;-63
2021/08/17 03:53:56;;;;;;;3.10;2.10;;;;;;;;;;5118113;28;20224;-63
2021/08/17 03:56:24;;;;;;;3.43;2.07;;;;;;;;;;5118295;28;20205;-62
2021/08/17 03:58:52;;;;;;;4.47;2.03;;;;;;;;;;5118555;28;20211;-63
2021/08/17 04:01:21;;;;;;;3.93;1.97;;;;;;;;;;5118084;28;20212;-63
2021/08/17 04:03:49;;;;;;;2.30;2.10;;;;;;;;;;5118009;28;20624;-63
2021/08/17 04:06:17;;;;;;;2.23;1.70;;;;;;;;;;5118105;28;20227;-63
2021/08/17 04:08:47;;;;;;;2.10;1.90;;;;;;;;;;5118204;28;20208;-63
2021/08/17 04:11:15;;;;;;;3.17;2.13;;;;;;;;;;5118118;28;20555;-63
2021/08/17 04:13:43;;;;;;;2.60;1.77;;;;;;;;;;5117814;28;20593;-63
2021/08/17 04:16:11;;;;;;;2.40;2.03;;;;;;;;;;5117640;28;20205;-63
2021/08/17 04:18:41;;;;;;;4.17;1.93;;;;;;;;;;5117936;28;20220;-62
2021/08/17 04:21:08;;;;;;;3.67;2.17;;;;;;;;;;5118000;28;20209;-63
2021/08/17 04:23:36;;;;;;;2.73;2.10;;;;;;;;;;5117775;28;20584;-63
2021/08/17 04:26:04;;;;;;;5.20;2.50;;;;;;;;;;5104568;28;20206;-63
2021/08/17 04:28:33;;;;;;;4.53;2.50;;;;;;;;;;5104683;28;20200;-63
2021/08/17 04:31:01;;;;;;;4.80;2.17;;;;;;;;;;5117745;28;20219;-63
2021/08/17 04:33:29;;;;;;;3.47;2.07;;;;;;;;;;5117748;28;20706;-63
2021/08/17 04:35:58;;;;;;;3.70;2.60;;;;;;;;;;5117676;28;20576;-63
2021/08/17 04:38:26;;;;;;;3.47;2.07;;;;;;;;;;5117995;28;20227;-63
2021/08/17 04:40:54;;;;;;;4.97;2.50;;;;;;;;;;5117837;28;20636;-63
2021/08/17 04:43:22;;;;;;;10.07;2.97;;;;;;;;;;5118034;28;20673;-63
2021/08/17 04:45:52;;;;;;;4.90;2.70;;;;;;;;;;5117724;28;20216;-62
2021/08/17 04:48:20;;;;;;;4.27;2.73;;;;;;;;;;5118151;28;20207;-62
2021/08/17 04:50:48;;;;;;;3.40;2.63;;;;;;;;;;5117938;28;20215;-63
2021/08/17 04:53:18;;;;;;;5.10;2.53;;;;;;;;;;5121605;28;20201;-63
2021/08/17 04:55:45;;;;;;;4.37;2.33;;;;;;;;;;5121759;28;20225;-63
2021/08/17 04:58:13;;;;;;;3.37;2.30;;;;;;;;;;5121718;28;20308;-63
2021/08/17 05:00:44;;;;;;;3.80;2.67;;;;;;;;;;5121412;28;20287;-63
2021/08/17 05:03:12;;;;;;;3.97;2.30;;;;;;;;;;5121632;28;20715;-63
2021/08/17 05:05:40;;;;;;;6.73;2.77;;;;;;;;;;5121659;28;20311;-63
2021/08/17 05:08:08;;;;;;;6.80;2.97;;;;;;;;;;5121495;28;20204;-63
2021/08/17 05:10:38;;;;;;;6.07;3.10;;;;;;;;;;5121539;28;20647;-63
2021/08/17 05:13:06;;;;;;;5.30;3.27;;;;;;;;;;5121430;28;20215;-63
2021/08/17 05:15:34;;;;;;;5.20;3.50;;;;;;;;;;5121001;28;20231;-63
2021/08/17 05:18:02;;;;;;;5.87;3.20;;;;;;;;;;5120787;28;20584;-63
2021/08/17 05:20:31;;;;;;;7.10;3.40;;;;;;;;;;5107706;28;20704;-63
2021/08/17 05:22:58;;;;;;;5.87;4.10;;;;;;;;;;5121445;28;20208;-63
2021/08/17 05:25:26;;;;;;;4.60;3.40;;;;;;;;;;5113537;27;20702;-63
2021/08/17 05:27:56;;;;;;;8.53;4.50;;;;;;;;;;5100609;28;20224;-63
2021/08/17 05:30:24;;;;;;;5.13;3.33;;;;;;;;;;5100752;28;20216;-63
2021/08/17 05:32:52;;;;;;;7.07;4.30;;;;;;;;;;5100789;28;20201;-63
2021/08/17 05:35:20;;;;;;;5.83;3.77;;;;;;;;;;5100494;28;20304;-62
2021/08/17 05:37:48;;;;;;;4.87;3.70;;;;;;;;;;5100209;28;20647;-63
2021/08/17 05:40:16;;;;;;;5.90;3.67;;;;;;;;;;5100401;28;20275;-62
2021/08/17 05:42:44;;;;;;;6.83;3.93;;;;;;;;;;5100587;28;20216;-62
2021/08/17 05:45:14;;;;;;;6.80;4.17;;;;;;;;;;5100398;28;20228;-62
2021/08/17 05:47:44;;;;;;;8.13;4.17;;;;;;;;;;5100509;28;20209;-63
2021/08/17 05:50:13;;;;;;;8.80;4.20;;;;;;;;;;5100667;28;20205;-62
2021/08/17 05:52:41;;;;;;;6.13;4.33;;;;;;;;;;5100051;28;20687;-64
2021/08/17 05:55:10;;;;;;;5.60;3.70;;;;;;;;;;5099835;28;20584;-62
2021/08/17 05:57:38;;;;;;;5.87;4.00;;;;;;;;;;5099598;28;20213;-62
2021/08/17 06:00:07;;;;;;;7.50;4.37;;;;;;;;;;5099595;28;20700;-63
2021/08/17 06:02:36;;;;;;;5.70;4.00;;;;;;;;;;5099703;28;20201;-63
2021/08/17 06:05:05;;;;;;;8.03;4.03;;;;;;;;;;5099926;28;20256;-63
2021/08/17 06:07:33;;;;;;;5.40;3.73;;;;;;;;;;5107109;28;20205;-63
2021/08/17 06:10:01;;;;;;;6.20;4.27;;;;;;;;;;5120266;28;20324;-63
2021/08/17 06:12:29;;;;;;;6.13;4.10;;;;;;;;;;5120547;28;20290;-63
2021/08/17 06:14:57;;;;;;;7.23;4.93;;;;;;;;;;5120051;28;20225;-63
2021/08/17 06:17:25;;;;;;;8.90;4.37;;;;;;;;;;5120198;28;20230;-63
2021/08/17 06:19:54;;;;;;;5.07;3.97;;;;;;;;;;5119747;28;20233;-63
2021/08/17 06:22:22;;;;;;;9.37;4.07;;;;;;;;;;5120331;27;20236;-63
2021/08/17 06:24:50;;;;;;;7.70;4.43;;;;;;;;;;5117140;28;20248;-63
2021/08/17 06:27:19;;;;;;;6.30;4.23;;;;;;;;;;5099618;28;20225;-63
2021/08/17 06:29:50;;;;;;;5.57;4.50;;;;;;;;;;5099409;28;20213;-63
2021/08/17 06:32:18;;;;;;;6.27;4.43;;;;;;;;;;5099649;28;20731;-63
2021/08/17 06:34:46;;;;;;;6.70;4.20;;;;;;;;;;5099242;28;20230;-63
2021/08/17 06:37:16;;;;;;;8.03;5.03;;;;;;;;;;5099209;28;20260;-63
2021/08/17 06:39:44;;;;;;;6.60;4.93;;;;;;;;;;5099452;28;20321;-63
2021/08/17 06:42:12;;;;;;;9.97;5.07;;;;;;;;;;5099371;28;20205;-63
2021/08/17 06:44:40;;;;;;;6.67;5.00;;;;;;;;;;5099092;28;20313;-63
2021/08/17 06:47:08;;;;;;;9.00;5.50;;;;;;;;;;5099199;28;20245;-63
2021/08/17 06:49:36;;;;;;;7.90;5.23;;;;;;;;;;5098902;28;20205;-63
2021/08/17 06:52:05;;;;;;;10.83;5.77;;;;;;;;;;5099075;28;20201;-63
2021/08/17 06:54:34;;;;;;;7.80;5.97;;;;;;;;;;5105716;28;20231;-63
2021/08/17 06:57:02;;;;;;;10.53;5.60;;;;;;;;;;5119432;28;20663;-65
2021/08/17 06:59:30;;;;;;;12.07;5.53;;;;;;;;;;5119321;28;20224;-66
2021/08/17 07:01:58;;;;;;;9.70;6.03;;;;;;;;;;5118782;28;20679;-63
2021/08/17 07:04:26;;;;;;;11.43;6.07;;;;;;;;;;5119132;28;20274;-63
2021/08/17 07:06:54;;;;;;;10.97;6.00;;;;;;;;;;5118868;28;20209;-63
2021/08/17 07:09:22;;;;;;;10.10;6.20;;;;;;;;;;5119115;28;20203;-63
2021/08/17 07:11:52;;;;;;;11.60;6.50;;;;;;;;;;5119104;28;20201;-63
2021/08/17 07:14:20;;;;;;;9.93;6.10;;;;;;;;;;5118073;28;20626;-63
2021/08/17 07:16:48;;;;;;;11.27;7.10;;;;;;;;;;5118706;28;20204;-63
2021/08/17 07:19:16;;;;;;;10.40;6.50;;;;;;;;;;5118589;28;20245;-65
2021/08/17 07:21:44;;;;;;;9.13;6.53;;;;;;;;;;5119029;27;20200;-65
2021/08/17 07:24:12;;;;;;;9.77;6.10;;;;;;;;;;5118901;28;20225;-66
2021/08/17 07:26:40;;;;;;;10.70;6.97;;;;;;;;;;5100522;28;20255;-63
2021/08/17 07:29:09;;;;;;;10.73;6.67;;;;;;;;;;5098213;28;20292;-63
2021/08/17 07:31:37;;;;;;;11.67;6.73;;;;;;;;;;5098018;28;20564;-63
2021/08/17 07:34:06;;;;;;;9.97;7.30;;;;;;;;;;5098462;28;20225;-63
2021/08/17 07:36:36;;;;;;;12.07;6.63;;;;;;;;;;5098345;28;20216;-63
2021/08/17 07:39:04;;;;;;;11.40;7.27;;;;;;;;;;5098168;28;20229;-63
2021/08/17 07:41:32;;;;;;;15.27;9.07;;;;;;;;;;5105441;28;20287;-63
2021/08/17 07:44:00;;;;;;;12.93;8.07;;;;;;;;;;5118551;28;20229;-63
2021/08/17 07:46:30;;;;;;;13.27;8.63;;;;;;;;;;5118416;28;20211;-63
2021/08/17 07:48:58;;;;;;;14.60;8.40;;;;;;;;;;5118464;27;20209;-63
2021/08/17 07:51:27;;;;;;;11.67;8.07;;;;;;;;;;5118536;28;20213;-63
2021/08/17 07:53:55;;;;;;;15.97;8.43;;;;;;;;;;5117946;28;20623;-64
2021/08/17 07:56:23;;;;;;;16.20;9.20;;;;;;;;;;5118081;28;20201;-63
2021/08/17 07:58:50;;;;;;;18.50;9.10;;;;;;;;;;5117962;28;20207;-64
2021/08/17 08:01:19;;;;;;;12.20;8.20;;;;;;;;;;5118103;28;20221;-63
2021/08/17 08:03:48;;;;;;;14.40;9.20;;;;;;;;;;5118001;28;20226;-63
2021/08/17 08:06:17;;;;;;;14.23;9.40;;;;;;;;;;5118634;28;20210;-63
2021/08/17 08:08:45;;;;;;;14.30;9.90;;;;;;;;;;5118071;28;20295;-63
2021/08/17 08:11:13;;;;;;;14.00;9.97;;;;;;;;;;5118009;28;20295;-63
2021/08/17 08:13:41;;;;;;;13.63;9.10;;;;;;;;;;5118103;28;20211;-63
2021/08/17 08:16:09;;;;;;;14.90;8.77;;;;;;;;;;5118023;28;20207;-63
2021/08/17 08:18:38;;;;;;;18.23;9.93;;;;;;;;;;5117861;28;20208;-64
2021/08/17 08:21:08;;;;;;;15.63;9.10;;;;;;;;;;5117839;28;20246;-64
2021/08/17 08:23:36;;;;;;;19.90;10.20;;;;;;;;;;5117853;28;20210;-64
2021/08/17 08:26:04;;;;;;;17.33;9.97;;;;;;;;;;5106712;28;20210;-64
2021/08/17 08:28:32;;;;;;;14.77;9.60;;;;;;;;;;5108407;28;20312;-64
2021/08/17 08:31:00;;;;;;;15.73;10.30;;;;;;;;;;5121819;28;20214;-63
2021/08/17 08:33:29;;;;;;;16.33;10.37;;;;;;;;;;5122186;27;20210;-64
2021/08/17 08:35:57;;;;;;;15.03;10.23;;;;;;;;;;5121946;27;20202;-63
2021/08/17 08:38:26;;;;;;;17.80;10.73;;;;;;;;;;5121910;28;20711;-63
2021/08/17 08:40:54;;;;;;;16.07;10.43;;;;;;;;;;5121845;27;20227;-63
2021/08/17 08:43:24;;;;;;;19.43;11.13;;;;;;;;;;5122036;28;20204;-63
2021/08/17 08:45:52;;;;;;;17.97;11.47;;;;;;;;;;5121374;28;20201;-63
2021/08/17 08:48:22;;;;;;;17.93;10.83;;;;;;;;;;5121870;28;20612;-65
2021/08/17 08:50:51;;;;;;;19.50;11.10;;;;;;;;;;5122082;28;20722;-66
2021/08/17 08:53:20;;;;;;;16.67;11.00;;;;;;;;;;5121832;28;20205;-63
2021/08/17 08:55:49;;;;;;;16.77;10.30;;;;;;;;;;5121848;28;20208;-63
2021/08/17 08:58:17;;;;;;;20.23;12.00;;;;;;;;;;5121800;28;20210;-63
2021/08/17 09:00:45;;;;;;;18.43;10.60;;;;;;;;;;5121260;28;20224;-64
2021/08/17 09:03:13;;;;;;;19.30;11.23;;;;;;;;;;5121643;28;20203;-64
2021/08/17 09:05:52;;;;;;;17.97;11.60;;;;;;;;;;5121509;28;20568;-64
2021/08/17 09:08:22;;;;;;;18.23;12.00;;;;;;;;;;5121458;28;20222;-63
2021/08/17 09:10:51;;;;;;;20.40;11.73;;;;;;;;;;5121598;28;20208;-63
2021/08/17 09:13:24;;;;;;;18.30;11.27;;;;;;;;;;5121166;28;20211;-65
2021/08/17 09:15:52;;;;;;;18.33;11.40;;;;;;;;;;5121277;28;20208;-63
2021/08/17 09:18:20;;;;;;;18.87;12.60;;;;;;;;;;5121173;28;20209;-63
2021/08/17 09:20:48;;;;;;;18.97;12.10;;;;;;;;;;5121086;28;20240;-66
2021/08/17 09:23:23;;;;;;;18.47;11.73;;;;;;;;;;5121352;28;20208;-63
2021/08/17 09:25:53;;;;;;;20.13;11.90;;;;;;;;;;5109899;28;20206;-63
2021/08/17 09:28:24;;;;;;;17.83;12.00;;;;;;;;;;5100989;28;20209;-65
2021/08/17 09:30:52;;;;;;;19.03;11.93;;;;;;;;;;5100587;28;20205;-65
2021/08/17 09:33:20;;;;;;;19.87;12.23;;;;;;;;;;5100521;28;20216;-65
2021/08/17 09:35:48;;;;;;;25.50;12.97;;;;;;;;;;5100528;28;20217;-64
2021/08/17 09:38:17;;;;;;;17.47;10.63;;;;;;;;;;5099711;28;20217;-65
2021/08/17 09:40:45;;;;;;;18.80;11.63;;;;;;;;;;5100419;28;20233;-65
2021/08/17 09:43:15;;;;;;;18.43;11.23;;;;;;;;;;5107482;28;20213;-62
2021/08/17 09:45:44;;;;;;;17.47;11.83;;;;;;;;;;5120243;28;20247;-62
2021/08/17 09:48:12;;;;;;;18.93;11.87;;;;;;;;;;5120966;28;20284;-65
2021/08/17 09:50:42;;;;;;;21.10;12.67;;;;;;;;;;5120602;27;20224;-63
2021/08/17 09:53:11;;;;;;;18.67;11.00;;;;;;;;;;5120458;28;20602;-63
2021/08/17 09:55:40;;;;;;;19.07;11.37;;;;;;;;;;5120235;28;20245;-63
2021/08/17 09:58:22;;;;;;;17.80;11.53;;;;;;;;;;5120549;27;20207;-63
2021/08/17 10:00:51;;;;;;;16.93;10.97;;;;;;;;;;5120090;28;20225;-63
2021/08/17 10:03:19;;;;;;;18.70;12.00;;;;;;;;;;5120191;28;20210;-63
2021/08/17 10:05:48;;;;;;;15.17;10.90;;;;;;;;;;5120192;28;20573;-63
2021/08/17 10:08:17;;;;;;;20.80;10.43;;;;;;;;;;5120454;27;20210;-63
2021/08/17 10:10:46;;;;;;;17.47;11.50;;;;;;;;;;5120416;28;20241;-63
2021/08/17 10:13:15;;;;;;;18.77;11.33;;;;;;;;;;5120239;28;20237;-63
2021/08/17 10:15:45;;;;;;;16.50;10.87;;;;;;;;;;5120056;28;20227;-63
2021/08/17 10:18:15;;;;;;;17.13;11.20;;;;;;;;;;5120304;28;20206;-63
2021/08/17 10:20:44;;;;;;;19.07;11.27;;;;;;;;;;5119970;28;20237;-63
2021/08/17 10:23:14;;;;;;;18.03;10.23;;;;;;;;;;5119961;28;20214;-65
2021/08/17 10:25:46;;;;;;;18.53;11.13;;;;;;;;;;5110336;28;20232;-65
2021/08/17 10:28:25;;;;;;;18.77;12.20;;;;;;;;;;5099701;28;20211;-63
2021/08/17 10:30:55;;;;;;;16.07;11.10;;;;;;;;;;5099058;28;20205;-63
2021/08/17 10:33:39;;;;;;;20.93;11.47;;;;;;;;;;5099543;28;20212;-63
2021/08/17 10:36:07;;;;;;;20.00;12.00;;;;;;;;;;5099448;28;20211;-63
2021/08/17 10:38:39;;;;;;;16.87;10.70;;;;;;;;;;5099743;28;20286;-64
2021/08/17 10:41:08;;;;;;;17.83;10.77;;;;;;;;;;5099465;28;20225;-63
2021/08/17 10:44:00;;;;;;;17.57;10.23;;;;;;;;;;5099734;28;20292;-63
2021/08/17 10:46:42;;;;;;;15.77;10.57;;;;;;;;;;5083914;28;20277;-63
2021/08/17 10:49:25;;;;;;;15.80;10.00;;;;;;;;;;5098055;28;20756;-63
2021/08/17 10:51:53;;;;;;;17.83;10.87;;;;;;;;;;5097036;28;20543;-63
2021/08/17 10:54:21;;;;;;;21.27;10.37;;;;;;;;;;5099119;28;20233;-63
2021/08/17 10:56:49;;;;;;;17.03;10.73;;;;;;;;;;5099006;28;20233;-63
2021/08/17 10:59:32;;;;;;;16.27;10.03;;;;;;;;;;5098863;28;20662;-64
2021/08/17 11:02:02;;;;;;;20.37;10.80;;;;;;;;;;5098403;28;20236;-63
2021/08/17 11:04:36;;;;;;;20.17;10.13;;;;;;;;;;5098799;28;20229;-66
2021/08/17 11:07:21;;;;;;;17.83;10.43;;;;;;;;;;5098909;28;20275;-63
2021/08/17 11:09:49;;;;;;;17.27;10.37;;;;;;;;;;5098723;28;20541;-63
2021/08/17 11:12:19;;;;;;;14.90;10.50;;;;;;;;;;5098578;28;20199;-63
2021/08/17 11:14:47;;;;;;;15.47;9.77;;;;;;;;;;5098210;28;20232;-63
2021/08/17 11:17:17;;;;;;;17.20;10.00;;;;;;;;;;5105833;28;20231;-65
2021/08/17 11:19:48;;;;;;;15.47;10.70;;;;;;;;;;5118815;28;20240;-63
2021/08/17 11:22:16;;;;;;;18.63;10.90;;;;;;;;;;5118774;28;20224;-63
2021/08/17 11:24:46;;;;;;;17.37;11.23;;;;;;;;;;5117088;28;20224;-63
2021/08/17 11:27:15;;;;;;;18.37;11.50;;;;;;;;;;5098586;28;20207;-63
2021/08/17 11:29:44;;;;;;;25.70;11.27;;;;;;;;;;5098326;28;20237;-63
2021/08/17 11:32:14;;;;;;;16.57;10.47;;;;;;;;;;5098374;28;20201;-64
2021/08/17 11:34:43;;;;;;;16.20;10.47;;;;;;;;;;5097970;28;20280;-64
2021/08/17 11:37:12;;;;;;;16.27;10.97;;;;;;;;;;5098505;28;20219;-63
2021/08/17 11:39:42;;;;;;;15.20;10.87;;;;;;;;;;5097872;28;20204;-64
2021/08/17 11:42:14;;;;;;;15.60;10.40;;;;;;;;;;5098450;28;20312;-63
2021/08/17 11:44:42;;;;;;;15.93;10.53;;;;;;;;;;5097977;28;20231;-63
2021/08/17 11:47:11;;;;;;;15.33;10.43;;;;;;;;;;5098151;28;20677;-63
2021/08/17 11:49:39;;;;;;;14.87;10.60;;;;;;;;;;5097948;28;20685;-64
2021/08/17 11:52:10;;;;;;;16.37;10.67;;;;;;;;;;5098033;28;20200;-64
2021/08/17 11:54:43;;;;;;;20.13;10.80;;;;;;;;;;5097936;28;20711;-63
2021/08/17 11:57:12;;;;;;;19.63;11.83;;;;;;;;;;5098132;28;20659;-63
2021/08/17 11:59:41;;;;;;;21.30;10.50;;;;;;;;;;5097902;28;20299;-64
2021/08/17 12:02:10;;;;;;;16.67;10.03;;;;;;;;;;5097286;28;20227;-63
2021/08/17 12:04:38;;;;;;;20.90;10.37;;;;;;;;;;5097764;28;20310;-63
2021/08/17 12:07:07;;;;;;;17.40;9.60;;;;;;;;;;5097849;28;20212;-63
2021/08/17 12:09:37;;;;;;;19.37;10.57;;;;;;;;;;5097933;28;20217;-63
2021/08/17 12:12:06;;;;;;;18.33;10.97;;;;;;;;;;5098153;28;20210;-63
2021/08/17 12:14:33;;;;;;;18.40;11.47;;;;;;;;;;5097629;28;20234;-63
2021/08/17 12:17:02;;;;;;;16.90;11.00;;;;;;;;;;5102906;28;20201;-63
2021/08/17 12:19:30;;;;;;;16.73;11.20;;;;;;;;;;5117861;28;20242;-63
2021/08/17 12:21:59;;;;;;;17.20;10.23;;;;;;;;;;5118160;28;20313;-63
2021/08/17 12:24:28;;;;;;;17.37;11.13;;;;;;;;;;5118170;28;20312;-63
2021/08/17 12:26:58;;;;;;;18.67;10.83;;;;;;;;;;5097889;28;20237;-62
2021/08/17 12:29:26;;;;;;;17.50;11.17;;;;;;;;;;5097206;28;20293;-65
2021/08/17 12:31:55;;;;;;;17.83;11.30;;;;;;;;;;5097553;28;20203;-64
2021/08/17 12:34:23;;;;;;;17.83;12.00;;;;;;;;;;5097178;28;20231;-65
2021/08/17 12:36:52;;;;;;;21.23;12.20;;;;;;;;;;5097686;28;20296;-64
2021/08/17 12:39:21;;;;;;;19.03;10.97;;;;;;;;;;5097617;28;20289;-62
2021/08/17 12:41:51;;;;;;;16.73;10.93;;;;;;;;;;5097531;28;20311;-63
2021/08/17 12:44:22;;;;;;;16.57;10.93;;;;;;;;;;5097378;28;20293;-63
2021/08/17 12:47:00;;;;;;;20.47;11.47;;;;;;;;;;5097742;28;20212;-63
2021/08/17 12:49:41;;;;;;;17.07;10.50;;;;;;;;;;5097475;28;20210;-63
2021/08/17 12:52:19;;;;;;;22.13;11.67;;;;;;;;;;5110462;28;20194;-63
2021/08/17 12:54:47;;;;;;;20.27;12.10;;;;;;;;;;5106353;28;20220;-64
2021/08/17 12:57:16;;;;;;;17.77;10.90;;;;;;;;;;5117474;28;20200;-65
2021/08/17 12:59:45;;;;;;;17.60;10.80;;;;;;;;;;5117256;28;20206;-65
2021/08/17 13:02:13;;;;;;;21.70;12.03;;;;;;;;;;5117076;28;20223;-65
2021/08/17 13:04:41;;;;;;;16.83;10.67;;;;;;;;;;5117533;28;20763;-64
2021/08/17 13:07:10;;;;;;;17.40;10.63;;;;;;;;;;5117807;28;20203;-65
2021/08/17 13:09:38;;;;;;;19.33;10.73;;;;;;;;;;5108559;28;20543;-65
2021/08/17 13:12:06;;;;;;;18.47;11.07;;;;;;;;;;5117910;28;20197;-65
2021/08/17 13:14:35;;;;;;;17.57;11.60;;;;;;;;;;5121155;28;20315;-64
2021/08/17 13:17:06;;;;;;;18.40;11.27;;;;;;;;;;5120876;28;20194;-64
2021/08/17 13:19:34;;;;;;;19.00;11.67;;;;;;;;;;5121380;28;20238;-64
2021/08/17 13:22:03;;;;;;;17.50;11.00;;;;;;;;;;5120908;28;20586;-63
2021/08/17 13:24:31;;;;;;;16.23;10.87;;;;;;;;;;5120842;28;20342;-63
2021/08/17 13:27:00;;;;;;;16.77;10.87;;;;;;;;;;5107779;28;20210;-63
2021/08/17 13:29:28;;;;;;;18.60;11.63;;;;;;;;;;5121091;28;20208;-63
2021/08/17 13:31:56;;;;;;;18.27;10.97;;;;;;;;;;5121224;28;20206;-63
2021/08/17 13:34:25;;;;;;;20.67;10.57;;;;;;;;;;5120804;28;20230;-63
2021/08/17 13:36:53;;;;;;;16.10;11.13;;;;;;;;;;5121286;27;20207;-63
2021/08/17 13:39:21;;;;;;;19.17;11.40;;;;;;;;;;5121057;28;20237;-65
2021/08/17 13:41:49;;;;;;;17.20;11.23;;;;;;;;;;5120779;28;20573;-65
2021/08/17 13:44:17;;;;;;;17.27;11.37;;;;;;;;;;5120580;28;20304;-63
2021/08/17 13:46:45;;;;;;;21.13;11.53;;;;;;;;;;5120845;28;20208;-65
2021/08/17 13:49:13;;;;;;;16.03;10.27;;;;;;;;;;5120516;28;20648;-66
2021/08/17 13:51:42;;;;;;;16.60;11.20;;;;;;;;;;5120910;28;20216;-65
2021/08/17 13:54:10;;;;;;;18.07;10.43;;;;;;;;;;5120406;28;20221;-65
2021/08/17 13:56:38;;;;;;;19.03;11.60;;;;;;;;;;5120806;28;20209;-65
2021/08/17 13:59:06;;;;;;;17.30;11.57;;;;;;;;;;5120470;28;20691;-66
2021/08/17 14:01:34;;;;;;;18.87;10.90;;;;;;;;;;5120128;28;20673;-65
2021/08/17 14:04:03;;;;;;;17.43;10.93;;;;;;;;;;5120168;28;20230;-63
2021/08/17 14:06:31;;;;;;;21.47;12.17;;;;;;;;;;5120633;28;20293;-63
2021/08/17 14:09:00;;;;;;;17.70;10.70;;;;;;;;;;5120258;28;20209;-63
2021/08/17 14:11:28;;;;;;;23.40;12.27;;;;;;;;;;5120351;28;20275;-63
2021/08/17 14:13:58;;;;;;;18.47;12.10;;;;;;;;;;5120396;28;20227;-63
2021/08/17 14:16:26;;;;;;;18.13;11.23;;;;;;;;;;5119590;28;20650;-63
2021/08/17 14:18:54;;;;;;;17.77;11.53;;;;;;;;;;5119942;28;20210;-63
2021/08/17 14:21:22;;;;;;;19.17;11.90;;;;;;;;;;5119914;28;20201;-63
2021/08/17 14:23:51;;;;;;;18.07;12.47;;;;;;;;;;5119714;27;20253;-63
2021/08/17 14:26:22;;;;;;;19.57;11.40;;;;;;;;;;5114799;28;20215;-65
2021/08/17 14:28:51;;;;;;;20.03;12.03;;;;;;;;;;5119867;28;20238;-66
2021/08/17 14:31:19;;;;;;;16.37;11.43;;;;;;;;;;5119263;28;20208;-66
2021/08/17 14:33:47;;;;;;;17.03;11.33;;;;;;;;;;5119780;27;20220;-65
2021/08/17 14:36:15;;;;;;;18.43;11.53;;;;;;;;;;5119888;28;20205;-65
2021/08/17 14:38:43;;;;;;;18.30;11.57;;;;;;;;;;5119958;28;20200;-65
2021/08/17 14:41:11;;;;;;;17.90;10.30;;;;;;;;;;5119541;28;20208;-64